Time;durP1;ratioP1;P1;durP2;ratioP2;P2;SDS_P1;SDS_P2;PMS_P1;PMS_P2;Temp;Humidity;BMP_temperature;BMP_pressure;BME280_temperature;BME280_humidity;BME280_pressure;Samples;Min_cycle;Max_cycle;Signal;HPM_P1;HPM_P2
2022/03/30 00:02:02;;;;;;;27.10;21.07;;;9.60;99.90;;;;;;5052087;28;20460;-69
2022/03/30 00:04:30;;;;;;;30.73;22.67;;;9.80;99.90;;;;;;5051508;28;20451;-68
2022/03/30 00:06:57;;;;;;;29.33;20.10;;;9.90;99.90;;;;;;5051863;28;20482;-70
2022/03/30 00:09:24;;;;;;;26.20;20.60;;;9.90;99.90;;;;;;5051215;28;20483;-71
2022/03/30 00:11:53;;;;;;;27.37;20.73;;;10.00;99.90;;;;;;5051731;28;20544;-68
2022/03/30 00:14:20;;;;;;;29.73;21.30;;;10.10;99.90;;;;;;5051012;28;20888;-69
2022/03/30 00:16:48;;;;;;;29.30;20.60;;;10.00;99.90;;;;;;5051633;28;20444;-70
2022/03/30 00:19:14;;;;;;;30.10;21.50;;;9.90;99.90;;;;;;5052027;28;20455;-70
2022/03/30 00:21:43;;;;;;;27.93;20.53;;;10.00;99.90;;;;;;5050889;28;20471;-69
2022/03/30 00:24:10;;;;;;;26.60;18.13;;;10.00;99.90;;;;;;5050084;28;20928;-72
2022/03/30 00:26:36;;;;;;;25.47;20.70;;;10.20;99.90;;;;;;5050719;28;20479;-70
2022/03/30 00:29:04;;;;;;;33.87;21.17;;;10.10;99.90;;;;;;5050543;28;20440;-69
2022/03/30 00:31:32;;;;;;;22.60;19.00;;;10.10;99.90;;;;;;5050290;28;20468;-70
2022/03/30 00:33:59;;;;;;;23.30;19.20;;;10.10;99.90;;;;;;5050531;28;20480;-69
2022/03/30 00:36:26;;;;;;;24.00;18.87;;;10.10;99.90;;;;;;5049979;28;20443;-68
2022/03/30 00:38:54;;;;;;;25.50;20.33;;;10.10;99.90;;;;;;5050570;28;20535;-69
2022/03/30 00:41:21;;;;;;;30.87;20.17;;;10.10;99.90;;;;;;5050543;28;20458;-69
2022/03/30 00:43:48;;;;;;;24.53;20.80;;;10.10;99.90;;;;;;5050494;28;20454;-71
2022/03/30 00:46:16;;;;;;;28.17;20.10;;;10.20;99.90;;;;;;5050035;28;20579;-70
2022/03/30 00:48:43;;;;;;;25.70;20.93;;;10.20;99.90;;;;;;5050350;28;20439;-69
2022/03/30 00:51:10;;;;;;;25.50;18.40;;;10.20;99.90;;;;;;5050232;28;20509;-68
2022/03/30 00:53:37;;;;;;;26.03;20.60;;;10.30;99.90;;;;;;5050335;28;20467;-68
2022/03/30 00:56:07;;;;;;;24.17;19.53;;;10.40;99.90;;;;;;5049562;28;20451;-69
2022/03/30 00:58:35;;;;;;;25.37;20.83;;;10.40;99.90;;;;;;5050192;28;20452;-69
2022/03/30 01:01:02;;;;;;;24.23;19.13;;;10.40;99.90;;;;;;5049977;28;20974;-70
2022/03/30 01:03:29;;;;;;;25.17;19.63;;;10.40;99.90;;;;;;5050014;28;20547;-69
2022/03/30 01:05:56;;;;;;;22.97;18.70;;;10.30;99.90;;;;;;5049312;28;20480;-69
2022/03/30 01:08:22;;;;;;;24.70;18.53;;;10.40;99.90;;;;;;5050262;28;20547;-70
2022/03/30 01:10:49;;;;;;;29.57;20.10;;;10.40;99.90;;;;;;5049813;28;20462;-70
2022/03/30 01:13:18;;;;;;;27.33;21.80;;;10.40;99.90;;;;;;5050150;28;20476;-68
2022/03/30 01:15:47;;;;;;;29.33;20.73;;;10.30;99.90;;;;;;5049201;28;20804;-70
2022/03/30 01:18:14;;;;;;;30.17;21.20;;;10.20;99.90;;;;;;5049779;28;20444;-69
2022/03/30 01:20:40;;;;;;;31.70;23.47;;;10.10;99.90;;;;;;5049500;28;20483;-68
2022/03/30 01:23:09;;;;;;;33.03;23.67;;;9.90;99.90;;;;;;5049809;28;20478;-69
2022/03/30 01:25:36;;;;;;;29.47;22.97;;;9.90;99.90;;;;;;5049004;28;20564;-70
2022/03/30 01:28:04;;;;;;;26.20;21.40;;;9.90;99.90;;;;;;5049970;28;20819;-69
2022/03/30 01:33:15;;;;;;;28.50;22.27;;;9.90;99.90;;;;;;5049994;28;20462;-69
2022/03/30 01:35:41;;;;;;;26.63;22.73;;;9.80;99.90;;;;;;5049179;28;20447;-68
2022/03/30 01:38:10;;;;;;;30.23;22.70;;;9.90;99.90;;;;;;5049858;28;20448;-69
2022/03/30 01:40:38;;;;;;;30.10;22.03;;;9.90;99.90;;;;;;5049622;28;20444;-69
2022/03/30 01:43:06;;;;;;;28.27;22.27;;;10.00;99.90;;;;;;5052015;28;20471;-69
2022/03/30 01:45:33;;;;;;;29.33;22.70;;;9.90;99.90;;;;;;5053536;28;20451;-69
2022/03/30 01:48:01;;;;;;;26.20;21.10;;;10.00;99.90;;;;;;5054445;28;20432;-69
2022/03/30 01:50:31;;;;;;;26.77;21.80;;;9.90;99.90;;;;;;5053714;28;20440;-71
2022/03/30 01:52:59;;;;;;;28.80;21.70;;;10.00;99.90;;;;;;5054005;28;20533;-69
2022/03/30 01:55:28;;;;;;;30.10;22.77;;;10.00;99.90;;;;;;5053086;28;21016;-69
2022/03/30 01:57:54;;;;;;;28.70;21.27;;;10.10;99.90;;;;;;5053514;28;20470;-72
2022/03/30 02:00:24;;;;;;;28.97;22.13;;;10.20;99.90;;;;;;5053174;28;20436;-69
2022/03/30 02:02:51;;;;;;;26.60;22.20;;;10.20;99.90;;;;;;5053629;28;20555;-69
2022/03/30 02:05:18;;;;;;;28.20;23.50;;;10.10;99.90;;;;;;5052998;28;20439;-69
2022/03/30 02:07:46;;;;;;;27.37;22.07;;;10.10;99.90;;;;;;5053431;28;20488;-70
2022/03/30 02:10:13;;;;;;;33.87;22.83;;;10.00;99.90;;;;;;5052668;28;20919;-70
2022/03/30 02:12:42;;;;;;;32.40;24.70;;;10.00;99.90;;;;;;5053213;28;20482;-68
2022/03/30 02:15:10;;;;;;;35.83;24.70;;;9.80;99.90;;;;;;5052699;28;20451;-71
2022/03/30 02:17:38;;;;;;;26.90;22.50;;;9.90;99.90;;;;;;5053523;28;20479;-69
2022/03/30 02:20:06;;;;;;;34.20;24.73;;;9.80;99.90;;;;;;5052898;28;20447;-70
2022/03/30 02:22:33;;;;;;;27.47;22.30;;;9.80;99.90;;;;;;5053099;28;20468;-71
2022/03/30 02:25:00;;;;;;;30.83;21.80;;;9.80;99.90;;;;;;5052368;28;20459;-71
2022/03/30 02:27:27;;;;;;;28.23;23.10;;;9.80;99.90;;;;;;5052983;28;21273;-69
2022/03/30 02:29:55;;;;;;;29.33;23.00;;;9.80;99.90;;;;;;5052882;28;20444;-71
2022/03/30 02:32:23;;;;;;;29.80;23.07;;;9.70;99.90;;;;;;5052973;28;20559;-70
2022/03/30 02:34:50;;;;;;;32.90;24.30;;;9.70;99.90;;;;;;5052454;28;20463;-69
2022/03/30 02:37:18;;;;;;;31.47;23.57;;;9.70;99.90;;;;;;5052770;28;20443;-70
2022/03/30 02:39:45;;;;;;;28.00;24.60;;;9.60;99.90;;;;;;5053011;28;20461;-72
2022/03/30 02:42:12;;;;;;;26.73;21.70;;;9.60;99.90;;;;;;5052623;28;21022;-70
2022/03/30 02:44:40;;;;;;;28.00;24.00;;;9.60;99.90;;;;;;5052293;28;20471;-70
2022/03/30 02:47:08;;;;;;;29.30;24.00;;;9.60;99.90;;;;;;5052770;28;20557;-70
2022/03/30 02:49:36;;;;;;;32.53;24.93;;;9.60;99.90;;;;;;5052313;28;20818;-70
2022/03/30 02:52:04;;;;;;;28.57;23.70;;;9.60;99.90;;;;;;5052397;28;20550;-72
2022/03/30 02:54:31;;;;;;;33.80;24.33;;;9.60;99.90;;;;;;5051675;28;20956;-69
2022/03/30 02:56:58;;;;;;;31.23;24.00;;;9.60;99.90;;;;;;5052652;28;20451;-70
2022/03/30 02:59:25;;;;;;;30.77;23.60;;;9.70;99.90;;;;;;5052302;28;21008;-70
2022/03/30 03:01:54;;;;;;;35.90;25.60;;;9.60;99.90;;;;;;5052521;28;20841;-71
2022/03/30 03:04:23;;;;;;;35.90;26.13;;;9.60;99.90;;;;;;5051410;28;20447;-69
2022/03/30 03:06:50;;;;;;;30.73;24.37;;;9.70;99.90;;;;;;5052375;28;20495;-71
2022/03/30 03:09:17;;;;;;;35.63;24.77;;;9.80;99.90;;;;;;5051781;28;21188;-70
2022/03/30 03:11:44;;;;;;;29.87;23.30;;;9.70;99.90;;;;;;5052371;28;20866;-71
2022/03/30 03:14:11;;;;;;;30.73;23.53;;;9.70;99.90;;;;;;5051354;28;20448;-70
2022/03/30 03:16:37;;;;;;;32.00;26.03;;;9.70;99.90;;;;;;5052353;28;20856;-69
2022/03/30 03:19:05;;;;;;;31.23;24.57;;;9.70;99.90;;;;;;5051552;28;21308;-71
2022/03/30 03:21:33;;;;;;;32.13;24.03;;;9.80;99.90;;;;;;5052352;28;20444;-70
2022/03/30 03:24:00;;;;;;;26.87;22.90;;;9.80;99.90;;;;;;5052048;28;20448;-70
2022/03/30 03:26:26;;;;;;;30.00;24.60;;;9.80;99.90;;;;;;5051341;28;21195;-71
2022/03/30 03:28:53;;;;;;;29.30;24.40;;;9.90;99.90;;;;;;5051903;28;20524;-69
2022/03/30 03:31:20;;;;;;;29.60;23.87;;;10.00;99.90;;;;;;5051933;28;20950;-70
2022/03/30 03:33:47;;;;;;;30.97;23.53;;;10.00;99.90;;;;;;5052244;28;20539;-73
2022/03/30 03:36:14;;;;;;;28.47;22.63;;;10.10;99.90;;;;;;5051335;28;20450;-69
2022/03/30 03:38:43;;;;;;;34.73;25.40;;;10.10;99.90;;;;;;5052513;28;20452;-73
2022/03/30 03:41:10;;;;;;;35.17;26.50;;;10.20;99.90;;;;;;5051867;28;20546;-70
2022/03/30 03:43:37;;;;;;;33.37;27.17;;;10.10;99.90;;;;;;5051774;28;20468;-71
2022/03/30 03:46:04;;;;;;;29.13;25.90;;;10.10;99.90;;;;;;5050842;28;20452;-69
2022/03/30 03:48:31;;;;;;;33.13;25.83;;;10.10;99.90;;;;;;5051826;28;20479;-69
2022/03/30 03:50:59;;;;;;;29.60;25.00;;;10.10;99.90;;;;;;5051341;28;20444;-69
2022/03/30 03:53:25;;;;;;;35.70;25.67;;;10.10;99.90;;;;;;5052106;28;20472;-71
2022/03/30 03:55:53;;;;;;;31.57;24.73;;;10.10;99.90;;;;;;5050576;28;20841;-69
2022/03/30 03:58:20;;;;;;;32.17;24.83;;;10.10;99.90;;;;;;5051637;28;20827;-69
2022/03/30 04:00:48;;;;;;;29.77;24.17;;;10.10;99.90;;;;;;5050873;28;20454;-70
2022/03/30 04:03:14;;;;;;;30.27;23.80;;;10.20;99.90;;;;;;5051155;28;20474;-71
2022/03/30 04:05:41;;;;;;;31.37;24.67;;;10.10;99.90;;;;;;5049887;28;20448;-69
2022/03/30 04:08:10;;;;;;;26.67;22.73;;;10.10;99.90;;;;;;5051343;28;20480;-70
2022/03/30 04:10:37;;;;;;;32.63;25.33;;;10.20;99.90;;;;;;5051016;28;20483;-71
2022/03/30 04:13:06;;;;;;;26.90;24.00;;;10.20;99.90;;;;;;5051732;28;20467;-70
2022/03/30 04:15:33;;;;;;;35.23;25.10;;;10.20;99.90;;;;;;5050846;28;20455;-70
2022/03/30 04:18:00;;;;;;;32.67;25.17;;;10.20;99.90;;;;;;5051476;28;20454;-71
2022/03/30 04:20:27;;;;;;;30.27;24.10;;;10.20;99.90;;;;;;5051084;28;20522;-71
2022/03/30 04:22:54;;;;;;;38.27;26.97;;;10.20;99.90;;;;;;5051526;28;20471;-70
2022/03/30 04:25:21;;;;;;;31.37;24.27;;;10.20;99.90;;;;;;5050198;28;20456;-69
2022/03/30 04:27:49;;;;;;;29.97;25.33;;;10.10;99.90;;;;;;5050794;28;20485;-68
2022/03/30 04:30:18;;;;;;;31.97;25.50;;;10.00;99.90;;;;;;5050714;28;20459;-71
2022/03/30 04:32:45;;;;;;;34.57;25.67;;;10.00;99.90;;;;;;5050821;28;20468;-70
2022/03/30 04:35:13;;;;;;;34.43;24.73;;;10.00;99.90;;;;;;5050217;28;20498;-69
2022/03/30 04:37:40;;;;;;;34.07;27.27;;;10.00;99.90;;;;;;5048749;28;20453;-71
2022/03/30 04:40:09;;;;;;;36.73;26.20;;;9.90;99.90;;;;;;5050007;28;20436;-71
2022/03/30 04:42:36;;;;;;;32.07;25.50;;;9.90;99.90;;;;;;5050389;28;20460;-67
2022/03/30 04:45:03;;;;;;;33.17;26.10;;;9.80;99.90;;;;;;5049621;28;20432;-70
2022/03/30 04:47:32;;;;;;;34.40;26.57;;;9.70;99.90;;;;;;5050738;28;20853;-69
2022/03/30 04:49:59;;;;;;;34.67;29.37;;;9.60;99.90;;;;;;5049930;28;20448;-72
2022/03/30 04:52:26;;;;;;;38.30;27.60;;;9.60;99.90;;;;;;5049911;28;21078;-71
2022/03/30 04:54:53;;;;;;;32.90;27.87;;;9.50;99.90;;;;;;5049250;28;21231;-73
2022/03/30 04:57:20;;;;;;;40.47;29.70;;;9.50;99.90;;;;;;5050360;28;20440;-73
2022/03/30 04:59:47;;;;;;;40.40;29.63;;;9.50;99.90;;;;;;5049585;28;20479;-72
2022/03/30 05:02:14;;;;;;;40.93;29.90;;;9.50;99.90;;;;;;5049742;28;20472;-70
2022/03/30 05:04:42;;;;;;;39.33;30.83;;;9.50;99.90;;;;;;5049208;28;20937;-72
2022/03/30 05:07:09;;;;;;;39.50;30.57;;;9.50;99.90;;;;;;5050039;28;20498;-71
2022/03/30 05:09:36;;;;;;;41.63;30.60;;;9.40;99.90;;;;;;5049536;28;20454;-70
2022/03/30 05:12:03;;;;;;;44.30;33.67;;;9.40;99.90;;;;;;5050111;28;20823;-68
2022/03/30 05:14:30;;;;;;;43.90;34.50;;;9.30;99.90;;;;;;5049073;28;20460;-70
2022/03/30 05:16:57;;;;;;;39.87;32.57;;;9.30;99.90;;;;;;5049881;28;20527;-68
2022/03/30 05:19:24;;;;;;;47.17;34.00;;;9.20;99.90;;;;;;5050195;28;20883;-70
2022/03/30 05:21:52;;;;;;;45.03;32.80;;;9.20;99.90;;;;;;5050445;28;20551;-69
2022/03/30 05:24:19;;;;;;;37.00;29.23;;;9.20;99.90;;;;;;5050071;28;21045;-70
2022/03/30 05:26:46;;;;;;;44.23;30.87;;;9.20;99.90;;;;;;5049833;28;20466;-69
2022/03/30 05:29:13;;;;;;;41.20;31.50;;;9.30;99.90;;;;;;5038505;28;20519;-71
2022/03/30 05:31:40;;;;;;;39.00;32.10;;;9.30;99.90;;;;;;5029858;28;20465;-70
2022/03/30 05:34:07;;;;;;;48.30;34.10;;;9.30;99.90;;;;;;5029285;28;20540;-70
2022/03/30 05:36:34;;;;;;;43.93;34.40;;;9.30;99.90;;;;;;5029884;28;20445;-69
2022/03/30 05:39:03;;;;;;;39.50;33.10;;;9.40;99.90;;;;;;5029710;28;20453;-69
2022/03/30 05:41:30;;;;;;;46.07;31.70;;;9.40;99.90;;;;;;5029988;28;21046;-70
2022/03/30 05:43:57;;;;;;;47.13;35.33;;;9.50;99.90;;;;;;5029748;28;20453;-70
2022/03/30 05:46:24;;;;;;;47.97;37.00;;;9.50;99.90;;;;;;5028947;28;20453;-69
2022/03/30 05:48:51;;;;;;;53.37;36.77;;;9.40;99.90;;;;;;5029537;28;20515;-70
2022/03/30 05:51:18;;;;;;;48.40;36.13;;;9.30;99.90;;;;;;5029551;28;20453;-70
2022/03/30 05:53:45;;;;;;;50.30;36.73;;;9.30;99.90;;;;;;5029583;28;20460;-72
2022/03/30 05:56:13;;;;;;;46.23;34.93;;;9.30;99.90;;;;;;5029127;28;20539;-70
2022/03/30 05:58:40;;;;;;;45.03;35.27;;;9.30;99.90;;;;;;5029558;28;20455;-70
2022/03/30 06:01:07;;;;;;;47.73;34.80;;;9.40;99.90;;;;;;5029260;28;20544;-71
2022/03/30 06:03:37;;;;;;;39.43;31.07;;;9.50;99.90;;;;;;5029273;28;20475;-71
2022/03/30 06:06:04;;;;;;;38.80;32.00;;;9.60;99.90;;;;;;5028952;28;20456;-71
2022/03/30 06:08:31;;;;;;;37.70;30.37;;;9.60;99.90;;;;;;5029117;28;20487;-71
2022/03/30 06:10:58;;;;;;;35.83;29.07;;;9.60;99.90;;;;;;5029231;28;20453;-71
2022/03/30 06:13:26;;;;;;;38.37;29.40;;;9.60;99.90;;;;;;5029747;28;20484;-74
2022/03/30 06:15:53;;;;;;;39.90;30.70;;;9.60;99.90;;;;;;5028906;28;20457;-71
2022/03/30 06:18:21;;;;;;;38.10;30.90;;;9.50;99.90;;;;;;5029572;28;20544;-73
2022/03/30 06:20:48;;;;;;;42.57;32.20;;;9.50;99.90;;;;;;5029009;28;20445;-71
2022/03/30 06:23:15;;;;;;;45.60;34.10;;;9.50;99.90;;;;;;5029428;28;20484;-73
2022/03/30 06:25:42;;;;;;;47.33;36.47;;;9.50;99.90;;;;;;5028581;28;20465;-72
2022/03/30 06:28:09;;;;;;;46.30;36.50;;;9.40;99.90;;;;;;5030641;28;20472;-71
2022/03/30 06:30:37;;;;;;;48.50;37.77;;;9.30;99.90;;;;;;5032670;28;20452;-72
2022/03/30 06:33:04;;;;;;;44.03;33.33;;;9.30;99.90;;;;;;5032971;28;20543;-72
2022/03/30 06:35:31;;;;;;;43.80;33.83;;;9.30;99.90;;;;;;5032294;28;20444;-70
2022/03/30 06:37:58;;;;;;;48.40;35.00;;;9.30;99.90;;;;;;5033127;28;20448;-72
2022/03/30 06:40:25;;;;;;;50.50;34.00;;;9.30;99.90;;;;;;5032713;28;20460;-71
2022/03/30 06:42:54;;;;;;;43.13;33.33;;;9.20;99.90;;;;;;5033028;28;20511;-72
2022/03/30 06:45:22;;;;;;;47.70;33.30;;;9.20;99.90;;;;;;5031868;28;20946;-72
2022/03/30 06:47:50;;;;;;;43.67;33.80;;;9.10;99.90;;;;;;5033086;28;20555;-72
2022/03/30 06:50:19;;;;;;;41.73;32.97;;;9.10;99.90;;;;;;5032657;28;20974;-71
2022/03/30 06:52:46;;;;;;;47.90;32.17;;;9.10;99.90;;;;;;5032805;28;20850;-72
2022/03/30 06:55:14;;;;;;;47.10;34.10;;;9.20;99.90;;;;;;5031918;28;20457;-71
2022/03/30 06:57:42;;;;;;;46.50;34.67;;;9.30;99.90;;;;;;5032594;28;20796;-71
2022/03/30 07:00:12;;;;;;;49.33;35.90;;;9.40;99.90;;;;;;5032431;28;20449;-72
2022/03/30 07:02:39;;;;;;;47.07;36.60;;;9.40;99.90;;;;;;5032745;28;20477;-73
2022/03/30 07:05:08;;;;;;;52.10;38.03;;;9.40;99.90;;;;;;5031785;28;20452;-71
2022/03/30 07:10:19;;;;;;;45.00;37.50;;;9.20;99.90;;;;;;5032595;28;20510;-71
2022/03/30 07:12:47;;;;;;;51.00;37.77;;;9.20;99.90;;;;;;5041232;28;20470;-71
2022/03/30 07:15:16;;;;;;;54.73;38.20;;;9.40;99.90;;;;;;5047055;28;20448;-71
2022/03/30 07:17:48;;;;;;;48.50;36.47;;;9.40;99.90;;;;;;5051882;28;20455;-74
2022/03/30 07:20:17;;;;;;;51.00;35.03;;;9.40;99.90;;;;;;5051594;28;20451;-73
2022/03/30 07:29:27;;;;;;;44.20;33.80;;;9.70;99.90;;;;;;5039795;28;21454;-72
2022/03/30 07:31:54;;;;;;;59.03;41.60;;;9.90;99.90;;;;;;5044300;22;20497;-71
2022/03/30 07:34:21;;;;;;;60.97;41.47;;;10.00;99.90;;;;;;5037977;28;20518;-71
2022/03/30 07:36:49;;;;;;;77.17;50.23;;;10.10;99.90;;;;;;5033226;28;20488;-70
2022/03/30 07:39:16;;;;;;;151.13;92.07;;;10.20;99.90;;;;;;5027293;28;20437;-70
2022/03/30 07:41:44;;;;;;;137.93;87.27;;;10.30;99.90;;;;;;5030204;28;20469;-72
2022/03/30 07:44:11;;;;;;;149.47;99.47;;;10.30;99.90;;;;;;5032301;28;20477;-72
2022/03/30 07:46:38;;;;;;;162.33;103.00;;;10.20;99.90;;;;;;5031656;28;20544;-71
2022/03/30 07:49:05;;;;;;;183.73;113.53;;;10.30;99.90;;;;;;5030202;28;20572;-71
2022/03/30 07:51:32;;;;;;;168.57;106.53;;;10.30;99.90;;;;;;5026239;28;20481;-71
2022/03/30 07:54:00;;;;;;;142.63;88.23;;;10.30;99.90;;;;;;5033857;28;20456;-71
2022/03/30 07:56:27;;;;;;;139.60;85.00;;;10.20;99.90;;;;;;5029867;28;20457;-72
2022/03/30 07:58:56;;;;;;;119.00;77.30;;;10.20;99.90;;;;;;5025501;28;20453;-70
2022/03/30 08:01:23;;;;;;;121.68;79.25;;;10.30;99.90;;;;;;5038001;28;20441;-71
2022/03/30 08:03:50;;;;;;;128.83;85.63;;;10.40;99.90;;;;;;5034550;28;20237;-71
2022/03/30 08:06:17;;;;;;;95.10;67.50;;;10.60;99.90;;;;;;5044787;28;20467;-71
2022/03/30 08:08:44;;;;;;;100.20;68.37;;;10.40;99.90;;;;;;5033025;28;20476;-70
2022/03/30 08:11:13;;;;;;;93.00;61.93;;;10.50;99.90;;;;;;5043334;28;20452;-69
2022/03/30 08:13:40;;;;;;;88.00;65.00;;;10.50;99.90;;;;;;5029403;28;20488;-71
2022/03/30 08:16:07;;;;;;;107.70;70.10;;;10.60;99.90;;;;;;5032004;28;20547;-71
2022/03/30 08:18:34;;;;;;;116.77;72.87;;;10.90;99.90;;;;;;5042769;28;20471;-70
2022/03/30 08:23:45;;;;;;;103.37;69.07;;;11.30;99.90;;;;;;5026029;28;20814;-71
2022/03/30 08:26:13;;;;;;;103.73;70.47;;;11.50;99.90;;;;;;5036416;28;20460;-72
2022/03/30 08:28:40;;;;;;;144.23;87.27;;;11.80;99.90;;;;;;5037412;28;20484;-70
2022/03/30 08:31:09;;;;;;;134.93;83.33;;;12.00;99.90;;;;;;5039229;28;20477;-71
2022/03/30 08:33:36;;;;;;;105.23;71.20;;;12.10;99.90;;;;;;5027765;28;20503;-72
2022/03/30 08:36:03;;;;;;;87.90;62.50;;;12.30;99.90;;;;;;5031453;28;20882;-71
2022/03/30 08:38:30;;;;;;;81.47;53.17;;;12.40;99.90;;;;;;5028689;28;20497;-72
2022/03/30 08:40:58;;;;;;;78.27;52.20;;;12.30;99.90;;;;;;5034575;28;20482;-70
2022/03/30 08:43:27;;;;;;;96.20;57.50;;;12.20;99.90;;;;;;5043959;28;20995;-70
2022/03/30 08:45:56;;;;;;;90.23;59.77;;;12.30;99.90;;;;;;5038841;28;20548;-72
2022/03/30 08:48:23;;;;;;;70.30;50.23;;;12.40;99.90;;;;;;5033261;28;20486;-70
2022/03/30 08:50:51;;;;;;;40.50;29.80;;;12.60;99.90;;;;;;5036809;28;20550;-72
2022/03/30 08:53:19;;;;;;;27.50;21.70;;;12.60;99.90;;;;;;5029252;28;20945;-71
2022/03/30 08:55:46;;;;;;;32.50;21.60;;;12.50;99.90;;;;;;5028852;28;20464;-69
2022/03/30 08:58:14;;;;;;;33.03;25.30;;;12.50;99.90;;;;;;5028945;28;20548;-71
2022/03/30 09:00:42;;;;;;;45.07;31.77;;;12.60;99.90;;;;;;5027553;28;20543;-72
2022/03/30 09:03:09;;;;;;;30.83;23.77;;;12.60;99.90;;;;;;5022878;28;20540;-72
2022/03/30 09:05:38;;;;;;;27.07;21.33;;;12.50;99.90;;;;;;5023180;28;20594;-69
2022/03/30 09:08:10;;;;;;;26.90;20.63;;;12.40;99.90;;;;;;5025945;28;20448;-72
2022/03/30 09:10:38;;;;;;;28.10;21.37;;;12.50;99.90;;;;;;5022387;28;20457;-72
2022/03/30 09:13:07;;;;;;;24.30;19.33;;;12.60;99.90;;;;;;5024084;28;20499;-71
2022/03/30 09:15:36;;;;;;;28.00;21.27;;;12.70;99.90;;;;;;5021357;28;20453;-71
2022/03/30 09:18:05;;;;;;;33.37;21.10;;;12.70;99.90;;;;;;5019795;28;21082;-72
2022/03/30 09:20:33;;;;;;;29.03;19.57;;;12.60;99.90;;;;;;5026442;28;20441;-71
2022/03/30 09:23:01;;;;;;;29.63;19.20;;;12.60;99.90;;;;;;5042016;28;20539;-72
2022/03/30 09:25:30;;;;;;;30.97;20.37;;;12.50;99.90;;;;;;5018100;28;20450;-72
2022/03/30 09:27:59;;;;;;;26.63;19.20;;;12.50;99.90;;;;;;5030073;28;20448;-71
2022/03/30 09:30:28;;;;;;;30.73;21.50;;;12.40;99.90;;;;;;5038476;28;20551;-72
2022/03/30 09:32:58;;;;;;;25.77;18.70;;;12.50;99.90;;;;;;5030722;28;20489;-71
2022/03/30 09:35:29;;;;;;;30.13;19.17;;;12.60;99.90;;;;;;5043026;28;20449;-71
2022/03/30 09:38:01;;;;;;;25.43;19.17;;;12.50;99.90;;;;;;5024143;28;21056;-72
2022/03/30 09:40:35;;;;;;;24.47;19.20;;;12.60;99.90;;;;;;5027204;28;20543;-72
2022/03/30 09:43:13;;;;;;;29.13;18.87;;;12.60;99.90;;;;;;5028322;28;20463;-70
2022/03/30 09:45:40;;;;;;;28.03;19.60;;;12.60;99.90;;;;;;5022835;28;20526;-69
2022/03/30 09:48:20;;;;;;;29.33;18.03;;;12.60;99.90;;;;;;5024400;28;20473;-69
2022/03/30 09:50:52;;;;;;;29.47;20.03;;;12.50;99.90;;;;;;5026054;28;20484;-69
2022/03/30 09:53:21;;;;;;;27.43;17.57;;;12.50;99.90;;;;;;5029280;28;20449;-69
2022/03/30 09:55:59;;;;;;;33.57;19.20;;;12.40;99.90;;;;;;5031009;28;20503;-72
2022/03/30 09:58:27;;;;;;;27.23;17.90;;;12.30;99.90;;;;;;5027856;28;20445;-72
2022/03/30 10:01:09;;;;;;;32.57;18.77;;;12.10;99.90;;;;;;5028642;28;20461;-68
2022/03/30 10:03:43;;;;;;;35.10;20.30;;;12.10;99.90;;;;;;5028207;28;20451;-68
2022/03/30 10:06:12;;;;;;;30.53;19.27;;;12.10;99.90;;;;;;5031957;28;20540;-71
2022/03/30 10:08:41;;;;;;;27.13;18.50;;;12.00;99.90;;;;;;5032641;28;20830;-71
2022/03/30 10:11:10;;;;;;;27.83;19.00;;;12.10;99.90;;;;;;5033124;28;20476;-70
2022/03/30 10:13:38;;;;;;;26.50;19.47;;;12.20;99.90;;;;;;5032493;28;20452;-71
2022/03/30 10:16:06;;;;;;;27.10;18.10;;;12.30;99.90;;;;;;5032393;28;20531;-71
2022/03/30 10:18:34;;;;;;;27.97;17.33;;;12.40;99.90;;;;;;5031169;28;20466;-71
2022/03/30 10:21:16;;;;;;;25.80;17.17;;;12.50;99.90;;;;;;5031604;28;20552;-70
2022/03/30 10:24:00;;;;;;;23.47;15.53;;;12.50;99.90;;;;;;5032239;28;20453;-71
2022/03/30 10:26:38;;;;;;;22.07;15.23;;;12.60;99.90;;;;;;5027051;28;20461;-71
2022/03/30 10:29:09;;;;;;;28.50;14.90;;;12.60;99.90;;;;;;5032556;28;20900;-70
2022/03/30 10:31:36;;;;;;;19.40;13.70;;;12.70;99.90;;;;;;5032184;28;20901;-70
2022/03/30 10:34:25;;;;;;;22.03;13.23;;;12.60;99.90;;;;;;5032741;28;21029;-71
2022/03/30 10:37:07;;;;;;;21.80;13.10;;;12.70;99.90;;;;;;5033364;28;20810;-73
2022/03/30 10:39:34;;;;;;;18.20;12.97;;;12.70;99.90;;;;;;5032823;28;21183;-69
2022/03/30 10:42:09;;;;;;;21.10;12.30;;;12.80;99.90;;;;;;5033103;28;20834;-70
2022/03/30 10:44:41;;;;;;;19.50;11.20;;;12.80;99.90;;;;;;5031762;28;20544;-69
2022/03/30 10:47:11;;;;;;;16.20;10.87;;;12.80;99.90;;;;;;5028903;28;20437;-70
2022/03/30 10:49:43;;;;;;;19.67;10.57;;;12.80;99.90;;;;;;5032681;28;20488;-70
2022/03/30 10:52:28;;;;;;;21.40;10.83;;;12.70;99.90;;;;;;5032492;28;20494;-70
2022/03/30 10:55:30;;;;;;;16.87;10.27;;;12.60;99.90;;;;;;5031604;28;20480;-70
2022/03/30 10:57:58;;;;;;;16.90;9.53;;;12.50;99.90;;;;;;5032404;28;20539;-69
2022/03/30 11:00:27;;;;;;;20.07;10.03;;;12.50;99.90;;;;;;5032703;28;20888;-68
2022/03/30 11:03:07;;;;;;;21.80;10.00;;;12.50;99.90;;;;;;5033108;28;20469;-70
2022/03/30 11:05:35;;;;;;;17.77;9.60;;;12.50;99.90;;;;;;5032087;28;20628;-72
2022/03/30 11:08:05;;;;;;;13.67;9.10;;;12.60;99.90;;;;;;5031326;28;20457;-71
2022/03/30 11:10:47;;;;;;;12.67;9.47;;;12.60;99.90;;;;;;5032393;28;20485;-72
2022/03/30 11:13:23;;;;;;;15.90;10.20;;;12.80;99.90;;;;;;5032676;28;20867;-71
2022/03/30 11:16:12;;;;;;;13.60;9.90;;;13.00;99.90;;;;;;5030821;28;20532;-71
2022/03/30 11:19:02;;;;;;;14.07;9.80;;;12.90;99.90;;;;;;5032255;28;21115;-72
2022/03/30 11:21:31;;;;;;;17.00;10.07;;;12.80;99.90;;;;;;5027187;28;20469;-72
2022/03/30 11:24:18;;;;;;;15.00;10.20;;;12.60;99.90;;;;;;5032229;28;20647;-71
2022/03/30 11:27:19;;;;;;;16.83;11.27;;;12.40;99.90;;;;;;5032114;28;20518;-70
2022/03/30 11:30:25;;;;;;;15.93;10.20;;;12.20;99.90;;;;;;5032026;28;20488;-69
2022/03/30 11:33:01;;;;;;;13.70;9.90;;;12.00;99.90;;;;;;5009612;28;20508;-70
2022/03/30 11:35:31;;;;;;;24.43;11.00;;;11.90;99.90;;;;;;5031656;28;20488;-72
2022/03/30 11:38:21;;;;;;;17.60;11.33;;;11.80;99.90;;;;;;5031389;28;20843;-72
2022/03/30 11:40:52;;;;;;;17.23;11.00;;;11.70;99.90;;;;;;5031867;28;20460;-71
2022/03/30 11:43:23;;;;;;;15.90;10.20;;;11.50;99.90;;;;;;5031731;28;20475;-72
2022/03/30 11:45:50;;;;;;;17.60;11.50;;;11.50;99.90;;;;;;5031655;28;20480;-72
2022/03/30 11:48:18;;;;;;;15.03;11.30;;;11.40;99.90;;;;;;5032036;28;20549;-72
2022/03/30 11:50:47;;;;;;;16.53;11.77;;;11.30;99.90;;;;;;5031637;28;20489;-71
2022/03/30 11:53:15;;;;;;;16.77;11.23;;;11.30;99.90;;;;;;5031694;28;20445;-72
2022/03/30 11:55:55;;;;;;;15.90;12.63;;;11.20;99.90;;;;;;5031536;28;20818;-71
2022/03/30 11:58:34;;;;;;;23.60;12.80;;;11.20;99.90;;;;;;5031697;28;20531;-71
2022/03/30 12:01:05;;;;;;;18.83;12.17;;;11.20;99.90;;;;;;5032088;28;20992;-70
2022/03/30 12:03:32;;;;;;;17.90;11.87;;;11.20;99.90;;;;;;5036669;28;20489;-70
2022/03/30 12:06:02;;;;;;;19.93;12.07;;;11.20;99.90;;;;;;5034434;28;20794;-71
2022/03/30 12:08:29;;;;;;;19.37;13.40;;;11.20;99.90;;;;;;5031022;28;20463;-70
2022/03/30 12:11:03;;;;;;;19.20;12.90;;;11.20;99.90;;;;;;5030918;28;20611;-71
2022/03/30 12:13:30;;;;;;;15.60;11.97;;;11.30;99.90;;;;;;5030829;28;20513;-71
2022/03/30 12:16:02;;;;;;;14.00;11.60;;;11.30;99.90;;;;;;5030872;28;20481;-69
2022/03/30 12:18:30;;;;;;;18.13;12.83;;;11.40;99.90;;;;;;5031046;28;20455;-70
2022/03/30 12:21:00;;;;;;;20.73;11.90;;;11.40;99.90;;;;;;5030636;28;20551;-71
2022/03/30 12:23:27;;;;;;;18.47;12.80;;;11.50;99.90;;;;;;5030726;28;20478;-71
2022/03/30 12:25:54;;;;;;;22.13;12.90;;;11.60;99.90;;;;;;5030352;28;20487;-71
2022/03/30 12:28:31;;;;;;;19.60;12.53;;;11.70;99.90;;;;;;5030763;28;20548;-71
2022/03/30 12:30:58;;;;;;;18.53;13.30;;;11.70;99.90;;;;;;5026951;28;20546;-71
2022/03/30 12:33:25;;;;;;;19.53;14.53;;;11.70;99.90;;;;;;5030740;28;20483;-70
2022/03/30 12:35:54;;;;;;;20.47;13.80;;;11.70;99.90;;;;;;5029828;28;20492;-72
2022/03/30 12:38:24;;;;;;;18.30;13.30;;;11.50;99.90;;;;;;5033462;28;20441;-71
2022/03/30 12:40:53;;;;;;;14.90;12.70;;;11.30;99.90;;;;;;5037249;28;20485;-71
2022/03/30 12:43:25;;;;;;;15.00;12.37;;;11.10;99.90;;;;;;5029137;28;20674;-69
2022/03/30 12:45:59;;;;;;;14.77;13.10;;;10.80;99.90;;;;;;5032173;28;20460;-68
2022/03/30 12:48:28;;;;;;;15.50;13.20;;;10.70;99.90;;;;;;5030854;28;20459;-69
2022/03/30 12:50:56;;;;;;;14.60;13.10;;;10.60;99.90;;;;;;5030336;28;20499;-71
2022/03/30 12:53:30;;;;;;;14.10;11.90;;;10.50;99.90;;;;;;5037123;28;20446;-72
2022/03/30 12:56:12;;;;;;;12.93;10.63;;;10.30;99.90;;;;;;5031697;28;20451;-71